sensor_id;sensor_type;location;lat;lon;timestamp;P1;durP1;ratioP1;P2;durP2;ratioP2
828;SDS011;396;52.558;13.188;2023-06-04T00:00:38;5.40;;;1.27;;
828;SDS011;396;52.558;13.188;2023-06-04T00:03:04;5.43;;;1.40;;
828;SDS011;396;52.558;13.188;2023-06-04T00:05:31;5.80;;;1.40;;
828;SDS011;396;52.558;13.188;2023-06-04T00:07:58;6.00;;;1.37;;
828;SDS011;396;52.558;13.188;2023-06-04T00:10:26;5.00;;;1.17;;
828;SDS011;396;52.558;13.188;2023-06-04T00:12:52;7.20;;;1.90;;
828;SDS011;396;52.558;13.188;2023-06-04T00:15:19;5.27;;;1.37;;
828;SDS011;396;52.558;13.188;2023-06-04T00:17:46;6.73;;;1.87;;
828;SDS011;396;52.558;13.188;2023-06-04T00:20:12;5.70;;;1.40;;
828;SDS011;396;52.558;13.188;2023-06-04T00:22:39;6.10;;;1.30;;
828;SDS011;396;52.558;13.188;2023-06-04T00:25:07;5.47;;;1.37;;
828;SDS011;396;52.558;13.188;2023-06-04T00:27:35;6.53;;;1.30;;
828;SDS011;396;52.558;13.188;2023-06-04T00:30:02;6.43;;;1.63;;
828;SDS011;396;52.558;13.188;2023-06-04T00:32:29;5.90;;;1.20;;
828;SDS011;396;52.558;13.188;2023-06-04T00:34:56;5.77;;;1.40;;
828;SDS011;396;52.558;13.188;2023-06-04T00:37:23;6.80;;;1.63;;
828;SDS011;396;52.558;13.188;2023-06-04T00:39:50;4.70;;;1.10;;
828;SDS011;396;52.558;13.188;2023-06-04T00:42:17;5.63;;;1.87;;
828;SDS011;396;52.558;13.188;2023-06-04T00:44:45;7.20;;;1.70;;
828;SDS011;396;52.558;13.188;2023-06-04T00:47:12;6.47;;;1.60;;
828;SDS011;396;52.558;13.188;2023-06-04T00:49:39;5.73;;;1.50;;
828;SDS011;396;52.558;13.188;2023-06-04T00:52:07;6.03;;;1.50;;
828;SDS011;396;52.558;13.188;2023-06-04T00:54:34;5.53;;;1.30;;
828;SDS011;396;52.558;13.188;2023-06-04T00:57:01;8.90;;;2.33;;
828;SDS011;396;52.558;13.188;2023-06-04T00:59:28;5.23;;;1.23;;
828;SDS011;396;52.558;13.188;2023-06-04T01:02:00;5.77;;;1.63;;
828;SDS011;396;52.558;13.188;2023-06-04T01:04:30;5.47;;;1.47;;
828;SDS011;396;52.558;13.188;2023-06-04T01:07:02;5.70;;;1.40;;
828;SDS011;396;52.558;13.188;2023-06-04T01:09:30;7.50;;;1.80;;
828;SDS011;396;52.558;13.188;2023-06-04T01:11:57;5.97;;;1.53;;
828;SDS011;396;52.558;13.188;2023-06-04T01:14:24;11.53;;;1.87;;
828;SDS011;396;52.558;13.188;2023-06-04T01:16:52;7.20;;;1.20;;
828;SDS011;396;52.558;13.188;2023-06-04T01:19:44;5.10;;;1.10;;
828;SDS011;396;52.558;13.188;2023-06-04T01:22:29;5.30;;;1.57;;
828;SDS011;396;52.558;13.188;2023-06-04T01:25:02;10.63;;;2.07;;
828;SDS011;396;52.558;13.188;2023-06-04T01:27:30;6.50;;;1.30;;
828;SDS011;396;52.558;13.188;2023-06-04T01:30:00;6.40;;;1.90;;
828;SDS011;396;52.558;13.188;2023-06-04T01:32:28;6.60;;;2.00;;
828;SDS011;396;52.558;13.188;2023-06-04T01:34:57;5.40;;;1.47;;
828;SDS011;396;52.558;13.188;2023-06-04T01:37:25;7.07;;;1.33;;
828;SDS011;396;52.558;13.188;2023-06-04T01:39:52;6.37;;;1.60;;
828;SDS011;396;52.558;13.188;2023-06-04T01:42:18;5.30;;;1.40;;
828;SDS011;396;52.558;13.188;2023-06-04T01:44:45;5.10;;;1.20;;
828;SDS011;396;52.558;13.188;2023-06-04T01:47:11;6.20;;;1.83;;
828;SDS011;396;52.558;13.188;2023-06-04T01:49:39;5.23;;;1.40;;
828;SDS011;396;52.558;13.188;2023-06-04T01:52:07;6.20;;;0.90;;
828;SDS011;396;52.558;13.188;2023-06-04T01:54:33;5.27;;;1.40;;
828;SDS011;396;52.558;13.188;2023-06-04T01:57:00;6.77;;;1.80;;
828;SDS011;396;52.558;13.188;2023-06-04T01:59:28;4.77;;;1.10;;
828;SDS011;396;52.558;13.188;2023-06-04T02:01:57;6.07;;;1.80;;
828;SDS011;396;52.558;13.188;2023-06-04T02:04:23;6.70;;;1.83;;
828;SDS011;396;52.558;13.188;2023-06-04T02:06:50;5.00;;;1.13;;
828;SDS011;396;52.558;13.188;2023-06-04T02:09:18;5.10;;;1.20;;
828;SDS011;396;52.558;13.188;2023-06-04T02:11:45;5.60;;;1.03;;
828;SDS011;396;52.558;13.188;2023-06-04T02:14:12;15.00;;;1.80;;
828;SDS011;396;52.558;13.188;2023-06-04T02:16:38;6.00;;;1.47;;
828;SDS011;396;52.558;13.188;2023-06-04T02:19:05;8.60;;;1.37;;
828;SDS011;396;52.558;13.188;2023-06-04T02:21:32;5.20;;;1.50;;
828;SDS011;396;52.558;13.188;2023-06-04T02:23:58;5.40;;;1.27;;
828;SDS011;396;52.558;13.188;2023-06-04T02:26:26;5.50;;;1.80;;
828;SDS011;396;52.558;13.188;2023-06-04T02:28:53;8.00;;;1.43;;
828;SDS011;396;52.558;13.188;2023-06-04T02:31:19;5.17;;;1.20;;
828;SDS011;396;52.558;13.188;2023-06-04T02:33:46;5.30;;;1.47;;
828;SDS011;396;52.558;13.188;2023-06-04T02:36:12;6.57;;;1.50;;
828;SDS011;396;52.558;13.188;2023-06-04T02:38:40;6.07;;;1.50;;
828;SDS011;396;52.558;13.188;2023-06-04T02:41:07;7.07;;;1.20;;
828;SDS011;396;52.558;13.188;2023-06-04T02:43:36;5.77;;;1.33;;
828;SDS011;396;52.558;13.188;2023-06-04T02:46:02;5.53;;;1.30;;
828;SDS011;396;52.558;13.188;2023-06-04T02:48:29;7.50;;;1.13;;
828;SDS011;396;52.558;13.188;2023-06-04T02:50:55;5.97;;;1.30;;
828;SDS011;396;52.558;13.188;2023-06-04T02:53:22;8.70;;;1.53;;
828;SDS011;396;52.558;13.188;2023-06-04T02:55:49;5.37;;;1.40;;
828;SDS011;396;52.558;13.188;2023-06-04T02:58:17;5.33;;;1.37;;
828;SDS011;396;52.558;13.188;2023-06-04T03:00:45;5.57;;;1.20;;
828;SDS011;396;52.558;13.188;2023-06-04T03:03:11;6.63;;;1.93;;
828;SDS011;396;52.558;13.188;2023-06-04T03:05:38;4.87;;;1.03;;
828;SDS011;396;52.558;13.188;2023-06-04T03:08:05;6.23;;;1.53;;
828;SDS011;396;52.558;13.188;2023-06-04T03:10:32;5.80;;;1.23;;
828;SDS011;396;52.558;13.188;2023-06-04T03:12:58;6.07;;;1.67;;
828;SDS011;396;52.558;13.188;2023-06-04T03:15:25;5.27;;;1.10;;
828;SDS011;396;52.558;13.188;2023-06-04T03:17:53;5.00;;;1.20;;
828;SDS011;396;52.558;13.188;2023-06-04T03:20:20;5.47;;;1.30;;
828;SDS011;396;52.558;13.188;2023-06-04T03:22:49;5.60;;;1.37;;
828;SDS011;396;52.558;13.188;2023-06-04T03:25:16;5.10;;;1.20;;
828;SDS011;396;52.558;13.188;2023-06-04T03:27:42;5.97;;;1.47;;
828;SDS011;396;52.558;13.188;2023-06-04T03:30:09;5.27;;;1.10;;
828;SDS011;396;52.558;13.188;2023-06-04T03:32:36;5.40;;;1.40;;
828;SDS011;396;52.558;13.188;2023-06-04T03:35:05;6.30;;;1.60;;
828;SDS011;396;52.558;13.188;2023-06-04T03:37:32;7.13;;;1.80;;
828;SDS011;396;52.558;13.188;2023-06-04T03:39:59;6.23;;;1.90;;
828;SDS011;396;52.558;13.188;2023-06-04T03:42:27;5.37;;;1.57;;
828;SDS011;396;52.558;13.188;2023-06-04T03:44:54;6.00;;;1.47;;
828;SDS011;396;52.558;13.188;2023-06-04T03:47:23;5.60;;;1.50;;
828;SDS011;396;52.558;13.188;2023-06-04T03:49:49;5.27;;;1.43;;
828;SDS011;396;52.558;13.188;2023-06-04T03:52:17;6.30;;;1.53;;
828;SDS011;396;52.558;13.188;2023-06-04T03:54:44;5.67;;;1.50;;
828;SDS011;396;52.558;13.188;2023-06-04T03:57:10;5.40;;;1.20;;
828;SDS011;396;52.558;13.188;2023-06-04T03:59:37;5.07;;;1.07;;
828;SDS011;396;52.558;13.188;2023-06-04T04:02:03;6.57;;;1.73;;
828;SDS011;396;52.558;13.188;2023-06-04T04:04:31;5.00;;;1.13;;
828;SDS011;396;52.558;13.188;2023-06-04T04:06:58;5.77;;;1.83;;
828;SDS011;396;52.558;13.188;2023-06-04T04:09:26;5.07;;;1.00;;
828;SDS011;396;52.558;13.188;2023-06-04T04:11:53;5.40;;;1.50;;
828;SDS011;396;52.558;13.188;2023-06-04T04:14:20;6.67;;;1.73;;
828;SDS011;396;52.558;13.188;2023-06-04T04:16:46;8.90;;;1.50;;
828;SDS011;396;52.558;13.188;2023-06-04T04:19:13;5.80;;;1.50;;
828;SDS011;396;52.558;13.188;2023-06-04T04:21:39;7.00;;;1.50;;
828;SDS011;396;52.558;13.188;2023-06-04T04:24:07;5.87;;;1.40;;
828;SDS011;396;52.558;13.188;2023-06-04T04:26:35;5.37;;;1.00;;
828;SDS011;396;52.558;13.188;2023-06-04T04:29:02;5.97;;;1.37;;
828;SDS011;396;52.558;13.188;2023-06-04T04:31:29;5.27;;;1.40;;
828;SDS011;396;52.558;13.188;2023-06-04T04:33:57;5.80;;;1.40;;
828;SDS011;396;52.558;13.188;2023-06-04T04:36:25;5.50;;;1.40;;
828;SDS011;396;52.558;13.188;2023-06-04T04:38:52;6.63;;;1.70;;
828;SDS011;396;52.558;13.188;2023-06-04T04:41:20;5.50;;;1.30;;
828;SDS011;396;52.558;13.188;2023-06-04T04:43:49;5.20;;;1.40;;
828;SDS011;396;52.558;13.188;2023-06-04T04:46:15;6.40;;;1.70;;
828;SDS011;396;52.558;13.188;2023-06-04T04:48:42;5.60;;;1.37;;
828;SDS011;396;52.558;13.188;2023-06-04T04:51:09;5.50;;;1.53;;
828;SDS011;396;52.558;13.188;2023-06-04T04:53:35;8.53;;;1.40;;
828;SDS011;396;52.558;13.188;2023-06-04T04:56:02;4.93;;;1.27;;
828;SDS011;396;52.558;13.188;2023-06-04T04:58:29;5.93;;;1.27;;
828;SDS011;396;52.558;13.188;2023-06-04T05:00:56;4.73;;;0.90;;
828;SDS011;396;52.558;13.188;2023-06-04T05:03:23;5.23;;;1.20;;
828;SDS011;396;52.558;13.188;2023-06-04T05:05:50;7.50;;;2.00;;
828;SDS011;396;52.558;13.188;2023-06-04T05:08:16;11.50;;;1.90;;
828;SDS011;396;52.558;13.188;2023-06-04T05:10:43;7.57;;;1.20;;
828;SDS011;396;52.558;13.188;2023-06-04T05:13:09;5.47;;;1.43;;
828;SDS011;396;52.558;13.188;2023-06-04T05:15:36;5.47;;;1.27;;
828;SDS011;396;52.558;13.188;2023-06-04T05:18:06;5.93;;;1.20;;
828;SDS011;396;52.558;13.188;2023-06-04T05:20:32;4.90;;;1.00;;
828;SDS011;396;52.558;13.188;2023-06-04T05:23:00;5.57;;;1.50;;
828;SDS011;396;52.558;13.188;2023-06-04T05:25:27;5.63;;;1.13;;
828;SDS011;396;52.558;13.188;2023-06-04T05:27:55;5.70;;;1.40;;
828;SDS011;396;52.558;13.188;2023-06-04T05:30:22;6.00;;;1.33;;
828;SDS011;396;52.558;13.188;2023-06-04T05:32:49;4.60;;;0.97;;
828;SDS011;396;52.558;13.188;2023-06-04T05:35:19;5.33;;;1.33;;
828;SDS011;396;52.558;13.188;2023-06-04T05:37:46;4.97;;;1.00;;
828;SDS011;396;52.558;13.188;2023-06-04T05:40:18;5.10;;;1.23;;
828;SDS011;396;52.558;13.188;2023-06-04T05:42:46;5.50;;;0.97;;
828;SDS011;396;52.558;13.188;2023-06-04T05:45:13;6.23;;;1.43;;
828;SDS011;396;52.558;13.188;2023-06-04T05:47:39;5.73;;;0.90;;
828;SDS011;396;52.558;13.188;2023-06-04T05:50:06;5.73;;;1.27;;
828;SDS011;396;52.558;13.188;2023-06-04T05:52:34;5.47;;;1.00;;
828;SDS011;396;52.558;13.188;2023-06-04T05:55:02;4.70;;;0.80;;
828;SDS011;396;52.558;13.188;2023-06-04T05:57:28;5.30;;;1.47;;
828;SDS011;396;52.558;13.188;2023-06-04T05:59:55;5.47;;;1.47;;
828;SDS011;396;52.558;13.188;2023-06-04T06:02:22;6.10;;;1.47;;
828;SDS011;396;52.558;13.188;2023-06-04T06:04:48;5.67;;;1.27;;
828;SDS011;396;52.558;13.188;2023-06-04T06:07:15;6.50;;;1.40;;
828;SDS011;396;52.558;13.188;2023-06-04T06:09:43;8.13;;;1.17;;
828;SDS011;396;52.558;13.188;2023-06-04T06:12:10;5.80;;;1.40;;
828;SDS011;396;52.558;13.188;2023-06-04T06:14:37;5.07;;;1.10;;
828;SDS011;396;52.558;13.188;2023-06-04T06:17:03;4.67;;;0.90;;
828;SDS011;396;52.558;13.188;2023-06-04T06:19:31;5.63;;;1.47;;
828;SDS011;396;52.558;13.188;2023-06-04T06:21:58;5.10;;;1.03;;
828;SDS011;396;52.558;13.188;2023-06-04T06:24:24;5.03;;;0.90;;
828;SDS011;396;52.558;13.188;2023-06-04T06:26:52;4.60;;;0.80;;
828;SDS011;396;52.558;13.188;2023-06-04T06:29:19;6.97;;;1.00;;
828;SDS011;396;52.558;13.188;2023-06-04T06:31:46;4.80;;;1.10;;
828;SDS011;396;52.558;13.188;2023-06-04T06:34:12;4.80;;;1.00;;
828;SDS011;396;52.558;13.188;2023-06-04T06:36:39;5.00;;;1.10;;
828;SDS011;396;52.558;13.188;2023-06-04T06:39:06;4.70;;;0.90;;
828;SDS011;396;52.558;13.188;2023-06-04T06:41:33;4.73;;;0.90;;
828;SDS011;396;52.558;13.188;2023-06-04T06:44:01;7.47;;;1.23;;
828;SDS011;396;52.558;13.188;2023-06-04T06:46:28;5.97;;;1.00;;
828;SDS011;396;52.558;13.188;2023-06-04T06:48:55;4.40;;;0.70;;
828;SDS011;396;52.558;13.188;2023-06-04T06:51:21;5.07;;;0.97;;
828;SDS011;396;52.558;13.188;2023-06-04T06:53:48;4.80;;;0.87;;
828;SDS011;396;52.558;13.188;2023-06-04T06:56:16;6.13;;;0.70;;
828;SDS011;396;52.558;13.188;2023-06-04T06:58:43;4.80;;;1.00;;
828;SDS011;396;52.558;13.188;2023-06-04T07:01:11;5.33;;;0.70;;
828;SDS011;396;52.558;13.188;2023-06-04T07:03:38;4.43;;;0.60;;
828;SDS011;396;52.558;13.188;2023-06-04T07:06:04;7.40;;;1.10;;
828;SDS011;396;52.558;13.188;2023-06-04T07:08:31;4.27;;;0.50;;
828;SDS011;396;52.558;13.188;2023-06-04T07:10:58;7.63;;;0.70;;
828;SDS011;396;52.558;13.188;2023-06-04T07:13:25;4.60;;;0.73;;
828;SDS011;396;52.558;13.188;2023-06-04T07:15:51;5.07;;;0.97;;
828;SDS011;396;52.558;13.188;2023-06-04T07:18:19;4.77;;;0.80;;
828;SDS011;396;52.558;13.188;2023-06-04T07:20:46;4.80;;;0.60;;
828;SDS011;396;52.558;13.188;2023-06-04T07:23:12;4.30;;;0.60;;
828;SDS011;396;52.558;13.188;2023-06-04T07:25:39;5.43;;;1.03;;
828;SDS011;396;52.558;13.188;2023-06-04T07:28:05;4.90;;;0.80;;
828;SDS011;396;52.558;13.188;2023-06-04T07:30:32;6.20;;;0.93;;
828;SDS011;396;52.558;13.188;2023-06-04T07:32:59;5.07;;;0.90;;
828;SDS011;396;52.558;13.188;2023-06-04T07:35:27;4.30;;;0.70;;
828;SDS011;396;52.558;13.188;2023-06-04T07:37:53;7.13;;;1.13;;
828;SDS011;396;52.558;13.188;2023-06-04T07:40:20;4.20;;;0.50;;
828;SDS011;396;52.558;13.188;2023-06-04T07:42:46;4.47;;;0.60;;
828;SDS011;396;52.558;13.188;2023-06-04T07:45:13;4.77;;;0.90;;
828;SDS011;396;52.558;13.188;2023-06-04T07:47:40;4.90;;;0.87;;
828;SDS011;396;52.558;13.188;2023-06-04T07:50:07;4.30;;;0.60;;
828;SDS011;396;52.558;13.188;2023-06-04T07:52:35;5.43;;;0.80;;
828;SDS011;396;52.558;13.188;2023-06-04T07:55:02;4.20;;;0.60;;
828;SDS011;396;52.558;13.188;2023-06-04T07:57:30;6.50;;;0.90;;
828;SDS011;396;52.558;13.188;2023-06-04T07:59:56;5.43;;;1.10;;
828;SDS011;396;52.558;13.188;2023-06-04T08:02:24;4.57;;;0.83;;
828;SDS011;396;52.558;13.188;2023-06-04T08:04:51;5.50;;;1.00;;
828;SDS011;396;52.558;13.188;2023-06-04T08:07:18;4.30;;;0.60;;
828;SDS011;396;52.558;13.188;2023-06-04T08:09:46;4.10;;;0.50;;
828;SDS011;396;52.558;13.188;2023-06-04T08:12:12;4.10;;;0.50;;
828;SDS011;396;52.558;13.188;2023-06-04T08:14:41;4.30;;;0.70;;
828;SDS011;396;52.558;13.188;2023-06-04T08:17:07;4.60;;;0.60;;
828;SDS011;396;52.558;13.188;2023-06-04T08:19:34;4.30;;;0.70;;
828;SDS011;396;52.558;13.188;2023-06-04T08:22:01;5.13;;;0.93;;
828;SDS011;396;52.558;13.188;2023-06-04T08:24:27;4.00;;;0.50;;
828;SDS011;396;52.558;13.188;2023-06-04T08:26:55;4.10;;;0.60;;
828;SDS011;396;52.558;13.188;2023-06-04T08:29:22;4.00;;;0.60;;
828;SDS011;396;52.558;13.188;2023-06-04T08:31:49;4.00;;;0.60;;
828;SDS011;396;52.558;13.188;2023-06-04T08:34:15;4.60;;;0.60;;
828;SDS011;396;52.558;13.188;2023-06-04T08:36:42;4.07;;;0.60;;
828;SDS011;396;52.558;13.188;2023-06-04T08:39:09;4.70;;;0.80;;
828;SDS011;396;52.558;13.188;2023-06-04T08:41:38;4.40;;;0.60;;
828;SDS011;396;52.558;13.188;2023-06-04T08:44:10;4.30;;;0.67;;
828;SDS011;396;52.558;13.188;2023-06-04T08:46:38;4.37;;;0.60;;
828;SDS011;396;52.558;13.188;2023-06-04T08:49:06;3.83;;;0.40;;
828;SDS011;396;52.558;13.188;2023-06-04T08:51:33;4.30;;;0.87;;
828;SDS011;396;52.558;13.188;2023-06-04T08:54:02;3.90;;;0.50;;
828;SDS011;396;52.558;13.188;2023-06-04T08:56:30;4.00;;;0.60;;
828;SDS011;396;52.558;13.188;2023-06-04T08:58:59;4.30;;;0.60;;
828;SDS011;396;52.558;13.188;2023-06-04T09:01:28;4.87;;;0.63;;
828;SDS011;396;52.558;13.188;2023-06-04T09:03:56;4.50;;;0.70;;
828;SDS011;396;52.558;13.188;2023-06-04T09:06:24;4.47;;;0.60;;
828;SDS011;396;52.558;13.188;2023-06-04T09:08:51;4.17;;;0.60;;
828;SDS011;396;52.558;13.188;2023-06-04T09:11:22;4.60;;;0.60;;
828;SDS011;396;52.558;13.188;2023-06-04T09:13:51;4.43;;;0.57;;
828;SDS011;396;52.558;13.188;2023-06-04T09:16:19;4.20;;;0.60;;
828;SDS011;396;52.558;13.188;2023-06-04T09:18:47;4.50;;;0.70;;
828;SDS011;396;52.558;13.188;2023-06-04T09:21:14;4.30;;;0.70;;
828;SDS011;396;52.558;13.188;2023-06-04T09:23:43;4.10;;;0.60;;
828;SDS011;396;52.558;13.188;2023-06-04T09:26:10;4.20;;;0.80;;
828;SDS011;396;52.558;13.188;2023-06-04T09:28:39;6.00;;;0.80;;
828;SDS011;396;52.558;13.188;2023-06-04T09:31:07;5.20;;;0.90;;
828;SDS011;396;52.558;13.188;2023-06-04T09:33:41;4.40;;;0.60;;
828;SDS011;396;52.558;13.188;2023-06-04T09:36:10;4.20;;;0.70;;
828;SDS011;396;52.558;13.188;2023-06-04T09:38:36;4.77;;;0.90;;
828;SDS011;396;52.558;13.188;2023-06-04T09:41:03;6.07;;;0.93;;
828;SDS011;396;52.558;13.188;2023-06-04T09:43:31;4.13;;;0.60;;
828;SDS011;396;52.558;13.188;2023-06-04T09:46:07;4.20;;;0.70;;
828;SDS011;396;52.558;13.188;2023-06-04T09:48:34;4.20;;;0.50;;
828;SDS011;396;52.558;13.188;2023-06-04T09:51:06;3.97;;;0.60;;
828;SDS011;396;52.558;13.188;2023-06-04T09:53:34;4.17;;;0.70;;
828;SDS011;396;52.558;13.188;2023-06-04T09:56:01;4.60;;;0.70;;
828;SDS011;396;52.558;13.188;2023-06-04T09:58:29;4.00;;;0.50;;
828;SDS011;396;52.558;13.188;2023-06-04T10:00:57;4.73;;;0.70;;
828;SDS011;396;52.558;13.188;2023-06-04T10:03:26;4.30;;;0.80;;
828;SDS011;396;52.558;13.188;2023-06-04T10:05:58;4.27;;;0.80;;
828;SDS011;396;52.558;13.188;2023-06-04T10:08:26;4.27;;;0.70;;
828;SDS011;396;52.558;13.188;2023-06-04T10:10:56;5.93;;;0.73;;
828;SDS011;396;52.558;13.188;2023-06-04T10:13:26;4.70;;;0.80;;
828;SDS011;396;52.558;13.188;2023-06-04T10:15:54;5.17;;;0.80;;
828;SDS011;396;52.558;13.188;2023-06-04T10:18:23;4.10;;;0.50;;
828;SDS011;396;52.558;13.188;2023-06-04T10:20:52;4.40;;;0.63;;
828;SDS011;396;52.558;13.188;2023-06-04T10:23:20;5.33;;;0.90;;
828;SDS011;396;52.558;13.188;2023-06-04T10:25:48;4.30;;;0.60;;
828;SDS011;396;52.558;13.188;2023-06-04T10:28:16;4.10;;;0.60;;
828;SDS011;396;52.558;13.188;2023-06-04T10:30:45;5.40;;;0.83;;
828;SDS011;396;52.558;13.188;2023-06-04T10:33:11;3.90;;;0.47;;
828;SDS011;396;52.558;13.188;2023-06-04T10:35:39;4.10;;;0.60;;
828;SDS011;396;52.558;13.188;2023-06-04T10:38:06;4.63;;;0.80;;
828;SDS011;396;52.558;13.188;2023-06-04T10:40:33;5.27;;;0.87;;
828;SDS011;396;52.558;13.188;2023-06-04T10:43:04;4.40;;;0.60;;
828;SDS011;396;52.558;13.188;2023-06-04T10:45:33;4.30;;;0.70;;
828;SDS011;396;52.558;13.188;2023-06-04T10:48:00;4.97;;;1.07;;
828;SDS011;396;52.558;13.188;2023-06-04T10:50:27;4.20;;;0.70;;
828;SDS011;396;52.558;13.188;2023-06-04T10:52:54;21.00;;;1.17;;
828;SDS011;396;52.558;13.188;2023-06-04T10:55:22;4.37;;;0.70;;
828;SDS011;396;52.558;13.188;2023-06-04T10:57:52;4.30;;;0.70;;
828;SDS011;396;52.558;13.188;2023-06-04T11:00:20;4.30;;;0.60;;
828;SDS011;396;52.558;13.188;2023-06-04T11:02:54;4.57;;;0.70;;
828;SDS011;396;52.558;13.188;2023-06-04T11:05:21;4.30;;;0.60;;
828;SDS011;396;52.558;13.188;2023-06-04T11:07:49;4.83;;;0.80;;
828;SDS011;396;52.558;13.188;2023-06-04T11:10:16;4.57;;;0.67;;
828;SDS011;396;52.558;13.188;2023-06-04T11:12:44;4.37;;;0.70;;
828;SDS011;396;52.558;13.188;2023-06-04T11:15:11;4.00;;;0.50;;
828;SDS011;396;52.558;13.188;2023-06-04T11:17:48;5.27;;;1.00;;
828;SDS011;396;52.558;13.188;2023-06-04T11:20:17;4.00;;;0.50;;
828;SDS011;396;52.558;13.188;2023-06-04T11:22:50;4.17;;;0.63;;
828;SDS011;396;52.558;13.188;2023-06-04T11:25:17;4.30;;;0.63;;
828;SDS011;396;52.558;13.188;2023-06-04T11:27:44;3.90;;;0.50;;
828;SDS011;396;52.558;13.188;2023-06-04T11:30:11;5.10;;;0.70;;
828;SDS011;396;52.558;13.188;2023-06-04T11:32:39;4.00;;;0.60;;
828;SDS011;396;52.558;13.188;2023-06-04T11:35:06;4.70;;;0.70;;
828;SDS011;396;52.558;13.188;2023-06-04T11:37:34;4.30;;;0.80;;
828;SDS011;396;52.558;13.188;2023-06-04T11:40:01;4.23;;;0.70;;
828;SDS011;396;52.558;13.188;2023-06-04T11:42:30;3.90;;;0.50;;
828;SDS011;396;52.558;13.188;2023-06-04T11:44:57;4.27;;;0.73;;
828;SDS011;396;52.558;13.188;2023-06-04T11:47:24;3.93;;;0.50;;
828;SDS011;396;52.558;13.188;2023-06-04T11:49:53;4.13;;;0.60;;
828;SDS011;396;52.558;13.188;2023-06-04T11:52:21;3.80;;;0.60;;
828;SDS011;396;52.558;13.188;2023-06-04T11:54:49;4.43;;;0.70;;
828;SDS011;396;52.558;13.188;2023-06-04T11:57:16;4.47;;;0.73;;
828;SDS011;396;52.558;13.188;2023-06-04T11:59:43;4.30;;;1.00;;
828;SDS011;396;52.558;13.188;2023-06-04T12:02:10;4.30;;;0.90;;
828;SDS011;396;52.558;13.188;2023-06-04T12:04:37;4.03;;;0.77;;
828;SDS011;396;52.558;13.188;2023-06-04T12:07:03;4.10;;;0.67;;
828;SDS011;396;52.558;13.188;2023-06-04T12:09:31;4.63;;;0.60;;
828;SDS011;396;52.558;13.188;2023-06-04T12:12:01;4.00;;;0.60;;
828;SDS011;396;52.558;13.188;2023-06-04T12:14:29;4.20;;;0.53;;
828;SDS011;396;52.558;13.188;2023-06-04T12:16:56;3.90;;;0.57;;
828;SDS011;396;52.558;13.188;2023-06-04T12:19:23;4.80;;;1.10;;
828;SDS011;396;52.558;13.188;2023-06-04T12:22:00;4.67;;;0.70;;
828;SDS011;396;52.558;13.188;2023-06-04T12:24:27;3.83;;;0.63;;
828;SDS011;396;52.558;13.188;2023-06-04T12:27:02;3.83;;;0.60;;
828;SDS011;396;52.558;13.188;2023-06-04T12:29:30;4.00;;;0.70;;
828;SDS011;396;52.558;13.188;2023-06-04T12:32:02;3.97;;;0.70;;
828;SDS011;396;52.558;13.188;2023-06-04T12:34:32;4.50;;;0.70;;
828;SDS011;396;52.558;13.188;2023-06-04T12:36:59;3.87;;;0.60;;
828;SDS011;396;52.558;13.188;2023-06-04T12:39:28;3.90;;;0.60;;
828;SDS011;396;52.558;13.188;2023-06-04T12:41:54;6.60;;;0.90;;
828;SDS011;396;52.558;13.188;2023-06-04T12:44:22;4.20;;;0.60;;
828;SDS011;396;52.558;13.188;2023-06-04T12:46:49;4.07;;;0.80;;
828;SDS011;396;52.558;13.188;2023-06-04T12:49:16;5.10;;;0.90;;
828;SDS011;396;52.558;13.188;2023-06-04T12:51:42;4.33;;;0.70;;
828;SDS011;396;52.558;13.188;2023-06-04T12:54:09;4.00;;;0.60;;
828;SDS011;396;52.558;13.188;2023-06-04T12:56:36;4.67;;;0.70;;
828;SDS011;396;52.558;13.188;2023-06-04T12:59:02;3.93;;;0.50;;
828;SDS011;396;52.558;13.188;2023-06-04T13:01:30;4.40;;;0.77;;
828;SDS011;396;52.558;13.188;2023-06-04T13:03:57;4.07;;;0.60;;
828;SDS011;396;52.558;13.188;2023-06-04T13:06:24;4.13;;;0.53;;
828;SDS011;396;52.558;13.188;2023-06-04T13:08:51;4.20;;;0.80;;
828;SDS011;396;52.558;13.188;2023-06-04T13:11:17;4.70;;;0.83;;
828;SDS011;396;52.558;13.188;2023-06-04T13:13:44;3.90;;;0.53;;
828;SDS011;396;52.558;13.188;2023-06-04T13:16:10;4.10;;;0.60;;
828;SDS011;396;52.558;13.188;2023-06-04T13:18:39;4.00;;;0.60;;
828;SDS011;396;52.558;13.188;2023-06-04T13:21:05;4.90;;;0.90;;
828;SDS011;396;52.558;13.188;2023-06-04T13:23:32;4.20;;;0.73;;
828;SDS011;396;52.558;13.188;2023-06-04T13:25:58;3.83;;;0.53;;
828;SDS011;396;52.558;13.188;2023-06-04T13:28:25;4.07;;;0.80;;
828;SDS011;396;52.558;13.188;2023-06-04T13:30:52;4.33;;;0.70;;
828;SDS011;396;52.558;13.188;2023-06-04T13:33:19;5.77;;;0.90;;
828;SDS011;396;52.558;13.188;2023-06-04T13:35:48;4.30;;;0.90;;
828;SDS011;396;52.558;13.188;2023-06-04T13:38:15;4.00;;;0.60;;
828;SDS011;396;52.558;13.188;2023-06-04T13:40:42;4.00;;;0.57;;
828;SDS011;396;52.558;13.188;2023-06-04T13:43:09;3.83;;;0.60;;
828;SDS011;396;52.558;13.188;2023-06-04T13:45:36;3.80;;;0.50;;
828;SDS011;396;52.558;13.188;2023-06-04T13:48:05;4.30;;;0.70;;
828;SDS011;396;52.558;13.188;2023-06-04T13:50:33;9.40;;;1.10;;
828;SDS011;396;52.558;13.188;2023-06-04T13:53:01;3.80;;;0.50;;
828;SDS011;396;52.558;13.188;2023-06-04T13:55:27;5.27;;;0.80;;
828;SDS011;396;52.558;13.188;2023-06-04T13:57:54;4.33;;;0.90;;
828;SDS011;396;52.558;13.188;2023-06-04T14:00:21;3.80;;;0.50;;
828;SDS011;396;52.558;13.188;2023-06-04T14:02:48;4.30;;;0.73;;
828;SDS011;396;52.558;13.188;2023-06-04T14:05:14;4.00;;;0.80;;
828;SDS011;396;52.558;13.188;2023-06-04T14:07:41;4.47;;;0.93;;
828;SDS011;396;52.558;13.188;2023-06-04T14:10:10;4.20;;;0.50;;
828;SDS011;396;52.558;13.188;2023-06-04T14:12:37;4.07;;;0.50;;
828;SDS011;396;52.558;13.188;2023-06-04T14:15:05;5.47;;;1.10;;
828;SDS011;396;52.558;13.188;2023-06-04T14:17:33;4.30;;;0.93;;
828;SDS011;396;52.558;13.188;2023-06-04T14:20:00;10.73;;;1.00;;
828;SDS011;396;52.558;13.188;2023-06-04T14:22:32;4.43;;;0.90;;
828;SDS011;396;52.558;13.188;2023-06-04T14:24:58;4.03;;;0.57;;
828;SDS011;396;52.558;13.188;2023-06-04T14:27:27;7.50;;;0.97;;
828;SDS011;396;52.558;13.188;2023-06-04T14:29:54;4.50;;;0.80;;
828;SDS011;396;52.558;13.188;2023-06-04T14:32:21;5.20;;;1.20;;
828;SDS011;396;52.558;13.188;2023-06-04T14:34:47;4.50;;;0.80;;
828;SDS011;396;52.558;13.188;2023-06-04T14:37:14;4.97;;;0.93;;
828;SDS011;396;52.558;13.188;2023-06-04T14:39:41;4.10;;;0.60;;
828;SDS011;396;52.558;13.188;2023-06-04T14:42:07;4.40;;;0.73;;
828;SDS011;396;52.558;13.188;2023-06-04T14:44:35;4.73;;;1.33;;
828;SDS011;396;52.558;13.188;2023-06-04T14:47:02;4.40;;;0.60;;
828;SDS011;396;52.558;13.188;2023-06-04T14:49:29;4.40;;;0.60;;
828;SDS011;396;52.558;13.188;2023-06-04T14:51:55;5.10;;;0.83;;
828;SDS011;396;52.558;13.188;2023-06-04T14:54:22;5.77;;;0.90;;
828;SDS011;396;52.558;13.188;2023-06-04T14:56:48;4.60;;;1.10;;
828;SDS011;396;52.558;13.188;2023-06-04T14:59:15;4.70;;;1.00;;
828;SDS011;396;52.558;13.188;2023-06-04T15:01:43;4.50;;;0.83;;
828;SDS011;396;52.558;13.188;2023-06-04T15:04:11;5.37;;;0.83;;
828;SDS011;396;52.558;13.188;2023-06-04T15:06:38;5.20;;;0.80;;
828;SDS011;396;52.558;13.188;2023-06-04T15:09:05;5.10;;;0.77;;
828;SDS011;396;52.558;13.188;2023-06-04T15:11:31;4.30;;;0.70;;
828;SDS011;396;52.558;13.188;2023-06-04T15:13:58;4.30;;;0.73;;
828;SDS011;396;52.558;13.188;2023-06-04T15:16:24;4.27;;;0.70;;
828;SDS011;396;52.558;13.188;2023-06-04T15:18:52;4.70;;;0.60;;
828;SDS011;396;52.558;13.188;2023-06-04T15:21:20;4.70;;;0.90;;
828;SDS011;396;52.558;13.188;2023-06-04T15:23:46;4.40;;;0.70;;
828;SDS011;396;52.558;13.188;2023-06-04T15:26:13;6.13;;;1.20;;
828;SDS011;396;52.558;13.188;2023-06-04T15:28:41;7.03;;;1.23;;
828;SDS011;396;52.558;13.188;2023-06-04T15:31:07;4.27;;;0.77;;